Time;durP1;ratioP1;P1;durP2;ratioP2;P2;SDS_P1;SDS_P2;PMS_P1;PMS_P2;Temp;Humidity;BMP_temperature;BMP_pressure;BME280_temperature;BME280_humidity;BME280_pressure;Samples;Min_cycle;Max_cycle;Signal;HPM_P1;HPM_P2
2024/02/22 00:02:17;;;;;;;2.45;0.57;;;;;;;;;;5105184;28;20047;-74
2024/02/22 00:04:49;;;;;;;2.63;0.60;;;;;;;;;;5104057;28;20213;-74
2024/02/22 00:07:21;;;;;;;1.75;0.47;;;;;;;;;;5103657;28;20060;-74
2024/02/22 00:09:53;;;;;;;2.33;0.55;;;;;;;;;;5104214;28;20059;-74
2024/02/22 00:12:24;;;;;;;1.05;0.50;;;;;;;;;;5104620;28;20062;-75
2024/02/22 00:14:55;;;;;;;1.83;0.63;;;;;;;;;;5103586;28;20051;-73
2024/02/22 00:17:28;;;;;;;7.32;0.40;;;;;;;;;;5103919;28;20043;-73
2024/02/22 00:19:59;;;;;;;0.60;0.47;;;;;;;;;;5104189;28;20063;-75
2024/02/22 00:22:30;;;;;;;0.75;0.30;;;;;;;;;;5103717;28;20415;-73
2024/02/22 00:25:01;;;;;;;0.55;0.30;;;;;;;;;;5102963;28;20052;-75
2024/02/22 00:27:33;;;;;;;1.77;0.40;;;;;;;;;;5103354;28;20514;-74
2024/02/22 00:30:13;;;;;;;5.68;0.70;;;;;;;;;;5104776;28;20039;-75
2024/02/22 00:32:47;;;;;;;4.55;0.50;;;;;;;;;;5103615;28;20063;-74
2024/02/22 00:35:17;;;;;;;7.72;0.90;;;;;;;;;;5101002;28;20067;-74
2024/02/22 00:37:49;;;;;;;1.00;0.45;;;;;;;;;;5103183;28;20075;-75
2024/02/22 00:40:23;;;;;;;0.98;0.40;;;;;;;;;;5103548;28;20052;-75
2024/02/22 00:42:53;;;;;;;0.85;0.40;;;;;;;;;;5103155;28;20055;-74
2024/02/22 00:45:23;;;;;;;4.03;0.40;;;;;;;;;;5103917;28;20051;-74
2024/02/22 00:47:56;;;;;;;0.80;0.28;;;;;;;;;;5103999;28;20406;-74
2024/02/22 00:50:27;;;;;;;0.55;0.40;;;;;;;;;;5103285;28;20051;-75
2024/02/22 00:52:58;;;;;;;3.70;1.33;;;;;;;;;;5103653;28;20070;-75
2024/02/22 00:55:29;;;;;;;3.47;0.55;;;;;;;;;;5103202;28;20062;-75
2024/02/22 00:58:00;;;;;;;5.93;0.88;;;;;;;;;;5103756;28;20062;-75
2024/02/22 01:00:34;;;;;;;1.30;0.57;;;;;;;;;;5102988;28;20044;-74
2024/02/22 01:03:05;;;;;;;1.30;0.57;;;;;;;;;;5103276;28;20611;-75
2024/02/22 01:05:35;;;;;;;7.68;0.73;;;;;;;;;;5102845;28;20055;-75
2024/02/22 01:08:05;;;;;;;1.67;0.30;;;;;;;;;;5103867;28;20421;-75
2024/02/22 01:10:36;;;;;;;0.50;0.50;;;;;;;;;;5103478;28;20047;-75
2024/02/22 01:13:08;;;;;;;1.48;0.65;;;;;;;;;;5103280;28;20494;-73
2024/02/22 01:15:38;;;;;;;1.42;0.70;;;;;;;;;;5101769;28;20062;-74
2024/02/22 01:18:08;;;;;;;1.45;0.73;;;;;;;;;;5102975;28;20058;-73
2024/02/22 01:20:39;;;;;;;3.25;0.70;;;;;;;;;;5104030;28;20048;-76
2024/02/22 01:23:10;;;;;;;2.38;0.73;;;;;;;;;;5103505;28;20040;-76
2024/02/22 01:25:40;;;;;;;2.08;0.75;;;;;;;;;;5103280;28;20044;-77
2024/02/22 01:28:12;;;;;;;1.60;0.57;;;;;;;;;;5102679;28;20064;-75
2024/02/22 01:30:42;;;;;;;0.75;0.70;;;;;;;;;;5103086;28;20048;-74
2024/02/22 01:33:12;;;;;;;3.30;0.70;;;;;;;;;;5103420;28;20051;-73
2024/02/22 01:35:42;;;;;;;2.28;0.70;;;;;;;;;;5102779;28;20051;-75
2024/02/22 01:38:13;;;;;;;1.60;0.60;;;;;;;;;;5102616;28;20804;-76
2024/02/22 01:40:44;;;;;;;4.32;0.68;;;;;;;;;;5102286;28;20051;-73
2024/02/22 01:43:15;;;;;;;1.90;0.55;;;;;;;;;;5102155;28;20434;-75
2024/02/22 01:45:44;;;;;;;3.30;0.70;;;;;;;;;;5101281;28;20064;-74
2024/02/22 01:48:16;;;;;;;3.00;0.68;;;;;;;;;;5101663;28;20090;-74
2024/02/22 01:50:52;;;;;;;1.83;0.60;;;;;;;;;;5101712;28;20043;-75
2024/02/22 01:53:26;;;;;;;1.10;0.50;;;;;;;;;;5102306;28;20055;-75
2024/02/22 01:55:58;;;;;;;1.60;0.60;;;;;;;;;;5103280;28;20052;-73
2024/02/22 01:58:36;;;;;;;0.50;0.50;;;;;;;;;;5100922;28;20051;-74
2024/02/22 02:01:20;;;;;;;1.30;0.47;;;;;;;;;;5100859;28;20426;-73
2024/02/22 02:03:50;;;;;;;2.70;0.60;;;;;;;;;;5102002;28;20058;-75
2024/02/22 02:06:21;;;;;;;0.77;0.60;;;;;;;;;;5103050;28;20601;-75
2024/02/22 02:08:53;;;;;;;2.83;0.60;;;;;;;;;;5102078;28;20059;-76
2024/02/22 02:11:24;;;;;;;4.55;0.32;;;;;;;;;;5103091;28;20410;-74
2024/02/22 02:13:55;;;;;;;1.52;1.15;;;;;;;;;;5102340;28;20051;-75
2024/02/22 02:16:27;;;;;;;0.77;0.73;;;;;;;;;;5103288;28;20047;-73
2024/02/22 02:18:57;;;;;;;2.25;0.70;;;;;;;;;;5102106;28;20070;-74
2024/02/22 02:21:40;;;;;;;1.23;0.63;;;;;;;;;;5101891;28;20043;-75
2024/02/22 02:24:27;;;;;;;2.25;0.40;;;;;;;;;;5101607;28;20047;-76
2024/02/22 02:26:59;;;;;;;1.55;0.47;;;;;;;;;;5101936;28;20759;-75
2024/02/22 02:29:30;;;;;;;1.00;0.60;;;;;;;;;;5102911;28;20048;-75
2024/02/22 02:32:00;;;;;;;1.98;0.40;;;;;;;;;;5100066;28;20070;-74
2024/02/22 02:34:32;;;;;;;2.63;0.50;;;;;;;;;;5101831;28;20074;-75
2024/02/22 02:37:03;;;;;;;0.50;0.50;;;;;;;;;;5101862;28;20510;-75
2024/02/22 02:39:33;;;;;;;4.60;0.50;;;;;;;;;;5102563;28;20053;-74
2024/02/22 02:42:06;;;;;;;3.05;0.40;;;;;;;;;;5102626;28;20395;-75
2024/02/22 02:44:37;;;;;;;0.55;0.50;;;;;;;;;;5102169;28;20051;-75
2024/02/22 02:47:08;;;;;;;4.43;0.70;;;;;;;;;;5101416;28;20055;-74
2024/02/22 02:49:39;;;;;;;0.98;0.52;;;;;;;;;;5102424;28;20075;-75
2024/02/22 02:52:10;;;;;;;2.47;0.60;;;;;;;;;;5100899;28;20056;-75
2024/02/22 02:54:40;;;;;;;2.05;0.50;;;;;;;;;;5102037;28;20052;-74
2024/02/22 02:57:10;;;;;;;1.27;0.40;;;;;;;;;;5101734;28;20068;-74
2024/02/22 02:59:40;;;;;;;0.98;0.30;;;;;;;;;;5101607;28;20062;-76
2024/02/22 03:02:10;;;;;;;2.78;0.50;;;;;;;;;;5101554;28;20063;-76
2024/02/22 03:04:41;;;;;;;1.92;0.60;;;;;;;;;;5101842;28;20067;-74
2024/02/22 03:07:13;;;;;;;2.88;0.52;;;;;;;;;;5101611;28;20051;-76
2024/02/22 03:09:43;;;;;;;1.92;0.55;;;;;;;;;;5103133;28;20059;-73
2024/02/22 03:12:13;;;;;;;2.70;0.60;;;;;;;;;;5103896;28;20055;-73
2024/02/22 03:14:43;;;;;;;0.55;0.40;;;;;;;;;;5105935;28;20058;-74
2024/02/22 03:17:14;;;;;;;1.95;0.38;;;;;;;;;;5105205;28;20073;-75
2024/02/22 03:19:45;;;;;;;1.05;0.50;;;;;;;;;;5105857;28;20051;-73
2024/02/22 03:22:16;;;;;;;0.50;0.50;;;;;;;;;;5105216;28;20051;-74
2024/02/22 03:24:48;;;;;;;4.40;0.60;;;;;;;;;;5105208;28;20051;-75
2024/02/22 03:27:18;;;;;;;1.10;0.57;;;;;;;;;;5104128;28;20059;-75
2024/02/22 03:29:48;;;;;;;2.70;0.45;;;;;;;;;;5104301;28;20062;-74
2024/02/22 03:32:19;;;;;;;1.13;0.35;;;;;;;;;;5105017;28;20058;-75
2024/02/22 03:34:48;;;;;;;2.83;0.47;;;;;;;;;;5105279;28;20506;-74
2024/02/22 03:37:19;;;;;;;0.98;0.60;;;;;;;;;;5105296;28;20040;-75
2024/02/22 03:39:49;;;;;;;1.15;0.30;;;;;;;;;;5105669;28;20048;-75
2024/02/22 03:42:21;;;;;;;2.38;0.40;;;;;;;;;;5105199;28;20453;-73
2024/02/22 03:44:51;;;;;;;1.52;0.35;;;;;;;;;;5104269;28;20414;-74
2024/02/22 03:47:21;;;;;;;0.55;0.47;;;;;;;;;;5103392;28;20059;-75
2024/02/22 03:49:51;;;;;;;0.88;0.60;;;;;;;;;;5103778;28;20061;-74
2024/02/22 03:52:23;;;;;;;5.78;0.57;;;;;;;;;;5105598;28;20067;-74
2024/02/22 03:54:55;;;;;;;4.85;0.50;;;;;;;;;;5104141;28;20078;-75
2024/02/22 03:57:25;;;;;;;0.40;0.40;;;;;;;;;;5104158;28;20059;-75
2024/02/22 03:59:55;;;;;;;2.22;0.88;;;;;;;;;;5104542;28;20047;-76
2024/02/22 04:02:25;;;;;;;1.92;0.45;;;;;;;;;;5104660;28;20407;-73
2024/02/22 04:04:56;;;;;;;1.08;0.70;;;;;;;;;;5104522;28;20806;-75
2024/02/22 04:07:27;;;;;;;0.50;0.40;;;;;;;;;;5104850;28;20073;-74
2024/02/22 04:09:57;;;;;;;4.75;0.60;;;;;;;;;;5104615;28;20058;-75
2024/02/22 04:12:28;;;;;;;0.82;0.50;;;;;;;;;;5103513;28;20048;-73
2024/02/22 04:14:58;;;;;;;0.50;0.40;;;;;;;;;;5104133;28;20043;-75
2024/02/22 04:17:30;;;;;;;4.60;0.50;;;;;;;;;;5103957;28;20106;-74
2024/02/22 04:20:03;;;;;;;1.35;0.40;;;;;;;;;;5104142;28;20059;-75
2024/02/22 04:22:46;;;;;;;0.45;0.40;;;;;;;;;;5102772;28;20063;-74
2024/02/22 04:25:18;;;;;;;7.05;0.82;;;;;;;;;;5103866;28;20082;-75
2024/02/22 04:27:50;;;;;;;4.43;0.50;;;;;;;;;;5103516;28;20048;-75
2024/02/22 04:30:20;;;;;;;0.70;0.65;;;;;;;;;;5104025;28;20506;-74
2024/02/22 04:32:50;;;;;;;0.60;0.60;;;;;;;;;;5103557;28;20773;-75
2024/02/22 04:35:20;;;;;;;3.40;0.65;;;;;;;;;;5103534;28;20059;-74
2024/02/22 04:37:53;;;;;;;5.50;0.60;;;;;;;;;;5103637;28;20052;-74
2024/02/22 04:40:24;;;;;;;3.22;0.50;;;;;;;;;;5103945;28;20414;-73
2024/02/22 04:42:56;;;;;;;0.30;0.30;;;;;;;;;;5103048;28;20051;-74
2024/02/22 04:45:26;;;;;;;0.15;0.15;;;;;;;;;;5103511;28;20055;-76
2024/02/22 04:48:01;;;;;;;0.10;0.10;;;;;;;;;;5104706;28;20420;-75
2024/02/22 04:50:35;;;;;;;1.02;0.40;;;;;;;;;;5103962;28;20062;-73
2024/02/22 04:53:05;;;;;;;1.33;0.50;;;;;;;;;;5103035;28;20541;-75
2024/02/22 04:55:36;;;;;;;0.93;0.20;;;;;;;;;;5103755;28;20414;-74
2024/02/22 04:58:05;;;;;;;0.98;0.43;;;;;;;;;;5102957;28;20052;-75
2024/02/22 05:00:38;;;;;;;1.33;0.43;;;;;;;;;;5103275;28;20047;-73
2024/02/22 05:03:09;;;;;;;0.40;0.40;;;;;;;;;;5103706;28;20060;-75
2024/02/22 05:05:40;;;;;;;1.75;0.60;;;;;;;;;;5102097;28;20052;-75
2024/02/22 05:08:11;;;;;;;2.15;0.30;;;;;;;;;;5103117;28;20333;-74
2024/02/22 05:10:41;;;;;;;6.10;0.70;;;;;;;;;;5102884;28;20051;-74
2024/02/22 05:13:11;;;;;;;3.00;0.57;;;;;;;;;;5103074;28;20052;-75
2024/02/22 05:15:42;;;;;;;1.20;0.50;;;;;;;;;;5103301;28;20044;-73
2024/02/22 05:18:13;;;;;;;2.05;0.50;;;;;;;;;;5103206;28;20502;-75
2024/02/22 05:20:42;;;;;;;1.45;0.52;;;;;;;;;;5103221;28;20063;-75
2024/02/22 05:23:13;;;;;;;4.63;0.70;;;;;;;;;;5103754;28;20043;-75
2024/02/22 05:25:44;;;;;;;0.40;0.40;;;;;;;;;;5103128;28;20410;-73
2024/02/22 05:28:15;;;;;;;2.45;0.65;;;;;;;;;;5102788;28;20091;-74
2024/02/22 05:30:45;;;;;;;0.40;0.40;;;;;;;;;;5102456;28;20058;-75
2024/02/22 05:33:15;;;;;;;2.40;0.38;;;;;;;;;;5103288;28;20745;-73
2024/02/22 05:35:45;;;;;;;0.82;0.45;;;;;;;;;;5102925;28;20052;-75
2024/02/22 05:38:16;;;;;;;0.95;0.50;;;;;;;;;;5103539;28;20070;-73
2024/02/22 05:40:47;;;;;;;0.65;0.40;;;;;;;;;;5102663;28;20063;-75
2024/02/22 05:43:17;;;;;;;1.63;0.55;;;;;;;;;;5102284;28;20076;-75
2024/02/22 05:45:48;;;;;;;0.50;0.47;;;;;;;;;;5102379;28;20055;-73
2024/02/22 05:48:18;;;;;;;3.80;0.50;;;;;;;;;;5102931;28;20050;-74
2024/02/22 05:50:49;;;;;;;3.33;0.50;;;;;;;;;;5101226;28;20054;-73
2024/02/22 05:53:19;;;;;;;6.20;0.65;;;;;;;;;;5101890;28;20055;-75
2024/02/22 05:55:49;;;;;;;0.93;0.43;;;;;;;;;;5102261;28;20051;-73
2024/02/22 05:58:19;;;;;;;0.63;0.50;;;;;;;;;;5101796;28;20051;-73
2024/02/22 06:00:50;;;;;;;2.03;0.60;;;;;;;;;;5102526;28;20047;-74
2024/02/22 06:03:20;;;;;;;1.67;0.60;;;;;;;;;;5102059;28;20063;-73
2024/02/22 06:05:50;;;;;;;0.50;0.50;;;;;;;;;;5102254;28;20043;-74
2024/02/22 06:08:20;;;;;;;1.48;0.77;;;;;;;;;;5101844;28;20062;-74
2024/02/22 06:10:52;;;;;;;2.05;0.70;;;;;;;;;;5101329;28;20096;-73
2024/02/22 06:13:23;;;;;;;1.42;0.60;;;;;;;;;;5103570;28;20051;-73
2024/02/22 06:15:53;;;;;;;0.88;0.45;;;;;;;;;;5103180;28;20047;-74
2024/02/22 06:18:23;;;;;;;1.60;0.40;;;;;;;;;;5102181;28;20051;-75
2024/02/22 06:20:53;;;;;;;3.05;0.60;;;;;;;;;;5101791;28;20074;-74
2024/02/22 06:23:24;;;;;;;5.40;0.70;;;;;;;;;;5102064;28;20059;-72
2024/02/22 06:25:57;;;;;;;2.67;0.57;;;;;;;;;;5100610;28;20078;-74
2024/02/22 06:28:27;;;;;;;0.40;0.32;;;;;;;;;;5101222;28;20067;-75
2024/02/22 06:30:57;;;;;;;2.55;0.50;;;;;;;;;;5101690;28;20059;-73
2024/02/22 06:33:27;;;;;;;2.72;0.50;;;;;;;;;;5102463;28;20071;-74
2024/02/22 06:35:57;;;;;;;0.68;0.52;;;;;;;;;;5102578;28;20051;-74
2024/02/22 06:38:28;;;;;;;0.80;0.40;;;;;;;;;;5102897;28;20043;-73
2024/02/22 06:40:58;;;;;;;2.90;0.50;;;;;;;;;;5102375;28;20052;-75
2024/02/22 06:43:28;;;;;;;0.60;0.60;;;;;;;;;;5102455;28;20070;-73
2024/02/22 06:45:58;;;;;;;1.02;0.57;;;;;;;;;;5105638;28;20051;-75
2024/02/22 06:48:29;;;;;;;3.08;0.38;;;;;;;;;;5105979;28;20086;-73
2024/02/22 06:51:00;;;;;;;0.55;0.50;;;;;;;;;;5106180;28;20059;-74
2024/02/22 06:53:30;;;;;;;1.02;0.68;;;;;;;;;;5105683;28;20055;-74
2024/02/22 06:56:00;;;;;;;2.10;0.68;;;;;;;;;;5105805;28;20059;-75
2024/02/22 06:58:31;;;;;;;0.50;0.50;;;;;;;;;;5105727;28;20063;-74
2024/02/22 07:01:01;;;;;;;1.42;0.65;;;;;;;;;;5105631;28;20865;-75
2024/02/22 07:03:31;;;;;;;0.90;0.50;;;;;;;;;;5106043;28;20047;-74
2024/02/22 07:06:02;;;;;;;1.95;0.43;;;;;;;;;;5106494;28;20035;-73
2024/02/22 07:08:33;;;;;;;5.00;0.90;;;;;;;;;;5106358;28;20054;-74
2024/02/22 07:11:04;;;;;;;0.63;0.50;;;;;;;;;;5106451;28;20555;-75
2024/02/22 07:13:34;;;;;;;0.43;0.30;;;;;;;;;;5104226;28;20059;-75
2024/02/22 07:16:05;;;;;;;1.50;0.45;;;;;;;;;;5105402;28;20051;-75
2024/02/22 07:18:36;;;;;;;3.22;0.55;;;;;;;;;;5104611;28;20113;-74
2024/02/22 07:21:06;;;;;;;0.40;0.40;;;;;;;;;;5105762;28;20043;-73
2024/02/22 07:23:36;;;;;;;0.98;0.70;;;;;;;;;;5105684;28;20047;-75
2024/02/22 07:26:10;;;;;;;0.90;0.60;;;;;;;;;;5105300;28;20056;-75
2024/02/22 07:28:41;;;;;;;5.05;0.50;;;;;;;;;;5105831;28;20039;-74
2024/02/22 07:31:11;;;;;;;2.80;0.68;;;;;;;;;;5105389;28;20040;-73
2024/02/22 07:33:41;;;;;;;1.88;0.50;;;;;;;;;;5104880;28;20063;-75
2024/02/22 07:36:12;;;;;;;0.60;0.60;;;;;;;;;;5105975;28;20074;-75
2024/02/22 07:38:42;;;;;;;4.60;0.55;;;;;;;;;;5105701;28;20056;-74
2024/02/22 07:41:16;;;;;;;2.95;0.57;;;;;;;;;;5105277;28;20048;-74
2024/02/22 07:43:49;;;;;;;0.57;0.57;;;;;;;;;;5106044;28;20391;-75
2024/02/22 07:46:20;;;;;;;2.03;0.40;;;;;;;;;;5105659;28;20058;-74
2024/02/22 07:48:50;;;;;;;2.88;0.50;;;;;;;;;;5104863;28;20047;-73
2024/02/22 07:51:22;;;;;;;0.65;0.52;;;;;;;;;;5104786;28;20498;-75
2024/02/22 07:53:52;;;;;;;0.40;0.40;;;;;;;;;;5105069;28;20058;-74
2024/02/22 07:56:23;;;;;;;0.50;0.50;;;;;;;;;;5103417;28;20059;-73
2024/02/22 07:58:57;;;;;;;0.50;0.50;;;;;;;;;;5104161;28;20058;-73
2024/02/22 08:01:27;;;;;;;0.55;0.55;;;;;;;;;;5104005;28;20051;-74
2024/02/22 08:03:57;;;;;;;1.17;0.50;;;;;;;;;;5104217;28;20060;-75
2024/02/22 08:06:27;;;;;;;0.40;0.40;;;;;;;;;;5104720;28;20055;-74
2024/02/22 08:08:58;;;;;;;0.77;0.47;;;;;;;;;;5104613;28;20055;-74
2024/02/22 08:11:28;;;;;;;0.30;0.30;;;;;;;;;;5104860;28;20051;-74
2024/02/22 08:13:59;;;;;;;0.50;0.50;;;;;;;;;;5103336;28;20088;-74
2024/02/22 08:16:29;;;;;;;0.40;0.30;;;;;;;;;;5105020;28;20520;-73
2024/02/22 08:19:00;;;;;;;0.80;0.70;;;;;;;;;;5103194;28;20502;-73
2024/02/22 08:21:30;;;;;;;0.30;0.30;;;;;;;;;;5104815;28;21035;-73
2024/02/22 08:24:01;;;;;;;0.30;0.30;;;;;;;;;;5104302;28;20810;-74
2024/02/22 08:26:30;;;;;;;0.40;0.40;;;;;;;;;;5103751;28;20067;-75
2024/02/22 08:29:04;;;;;;;12.68;0.70;;;;;;;;;;5104375;28;20061;-75
2024/02/22 08:31:35;;;;;;;0.55;0.55;;;;;;;;;;5105242;28;20047;-74
2024/02/22 08:34:06;;;;;;;10.23;0.73;;;;;;;;;;5104940;28;20052;-74
2024/02/22 08:36:37;;;;;;;13.88;0.80;;;;;;;;;;5103647;28;20101;-75
2024/02/22 08:39:07;;;;;;;3.20;0.82;;;;;;;;;;5104426;28;20040;-74
2024/02/22 08:41:38;;;;;;;2.05;0.63;;;;;;;;;;5104190;28;20502;-74
2024/02/22 08:44:09;;;;;;;2.55;0.70;;;;;;;;;;5104378;28;20044;-73
2024/02/22 08:46:39;;;;;;;9.18;0.68;;;;;;;;;;5104635;28;20503;-75
2024/02/22 08:49:10;;;;;;;16.13;0.90;;;;;;;;;;5103504;28;20414;-74
2024/02/22 08:51:41;;;;;;;0.90;0.68;;;;;;;;;;5103673;27;20043;-75
2024/02/22 08:54:11;;;;;;;5.50;0.70;;;;;;;;;;5102329;28;20040;-75
2024/02/22 08:56:41;;;;;;;3.88;0.50;;;;;;;;;;5104270;28;20078;-74
2024/02/22 08:59:12;;;;;;;11.40;0.80;;;;;;;;;;5103456;28;20056;-75
2024/02/22 09:01:42;;;;;;;0.55;0.55;;;;;;;;;;5101806;28;20063;-74
2024/02/22 09:04:12;;;;;;;2.78;0.50;;;;;;;;;;5104191;28;20597;-74
2024/02/22 09:06:42;;;;;;;1.70;0.55;;;;;;;;;;5102806;28;20071;-73
2024/02/22 09:09:14;;;;;;;1.63;0.77;;;;;;;;;;5103332;28;20050;-75
2024/02/22 09:11:44;;;;;;;1.05;0.60;;;;;;;;;;5103461;28;20055;-73
2024/02/22 09:14:15;;;;;;;2.13;0.93;;;;;;;;;;5102670;28;20055;-73
2024/02/22 09:16:45;;;;;;;0.73;0.70;;;;;;;;;;5103310;28;20064;-75
2024/02/22 09:19:16;;;;;;;3.10;0.40;;;;;;;;;;5103601;28;20422;-73
2024/02/22 09:21:48;;;;;;;1.50;0.30;;;;;;;;;;5101572;28;20425;-74
2024/02/22 09:24:19;;;;;;;0.40;0.40;;;;;;;;;;5103132;28;20052;-74
2024/02/22 09:26:49;;;;;;;0.63;0.63;;;;;;;;;;5102961;28;20056;-75
2024/02/22 09:29:20;;;;;;;0.60;0.60;;;;;;;;;;5102810;28;20088;-74
2024/02/22 09:31:51;;;;;;;0.52;0.52;;;;;;;;;;5103024;28;20055;-80
2024/02/22 09:34:23;;;;;;;2.35;0.50;;;;;;;;;;5102362;28;20061;-74
2024/02/22 09:36:54;;;;;;;0.50;0.50;;;;;;;;;;5102765;28;20048;-74
2024/02/22 09:39:25;;;;;;;0.90;0.50;;;;;;;;;;5101739;28;20529;-74
2024/02/22 09:41:56;;;;;;;0.35;0.32;;;;;;;;;;5102861;28;20055;-73
2024/02/22 09:44:28;;;;;;;1.00;0.40;;;;;;;;;;5102572;28;20063;-77
2024/02/22 09:47:54;;;;;;;4.10;1.50;;;;;;;;;;5102785;28;20418;-79
2024/02/22 09:50:26;;;;;;;10.85;1.60;;;;;;;;;;5089849;28;20051;-74
2024/02/22 09:52:58;;;;;;;15.25;2.60;;;;;;;;;;5102825;28;20073;-75
2024/02/22 09:56:14;;;;;;;8.43;1.60;;;;;;;;;;5102387;28;20071;-75
2024/02/22 09:58:50;;;;;;;21.00;2.42;;;;;;;;;;5097864;28;20048;-73
2024/02/22 10:01:27;;;;;;;3.33;1.17;;;;;;;;;;5101300;28;20414;-74
2024/02/22 10:04:08;;;;;;;3.45;1.30;;;;;;;;;;5101907;28;20051;-73
2024/02/22 10:06:39;;;;;;;4.07;1.23;;;;;;;;;;5102479;28;20044;-75
2024/02/22 10:09:11;;;;;;;4.22;1.05;;;;;;;;;;5101692;28;20082;-76
2024/02/22 10:11:47;;;;;;;2.17;0.98;;;;;;;;;;5102411;28;20391;-75
2024/02/22 10:14:18;;;;;;;7.82;1.83;;;;;;;;;;5102412;28;20059;-76
2024/02/22 10:16:48;;;;;;;5.97;1.30;;;;;;;;;;5101247;28;20059;-74
2024/02/22 10:19:19;;;;;;;4.63;1.33;;;;;;;;;;5101247;28;20521;-74
2024/02/22 10:21:56;;;;;;;5.47;1.60;;;;;;;;;;5102410;28;20047;-78
2024/02/22 10:24:29;;;;;;;12.68;3.65;;;;;;;;;;5101672;28;20058;-75
2024/02/22 10:27:04;;;;;;;11.02;1.98;;;;;;;;;;5102769;28;20044;-78
2024/02/22 10:29:38;;;;;;;4.80;1.80;;;;;;;;;;5101159;28;20408;-77
2024/02/22 10:32:15;;;;;;;2.33;1.27;;;;;;;;;;5103099;28;20043;-75
2024/02/22 10:35:24;;;;;;;4.72;1.27;;;;;;;;;;5101275;28;20052;-75
2024/02/22 10:37:55;;;;;;;9.90;1.60;;;;;;;;;;5100955;28;20065;-75
2024/02/22 10:40:26;;;;;;;3.60;1.33;;;;;;;;;;5101846;28;20066;-76
2024/02/22 10:42:56;;;;;;;7.65;1.90;;;;;;;;;;5108301;28;20055;-74
2024/02/22 10:45:31;;;;;;;6.32;1.27;;;;;;;;;;5123832;27;20047;-82
2024/02/22 10:48:06;;;;;;;3.90;1.50;;;;;;;;;;5123063;27;20062;-75
2024/02/22 10:50:39;;;;;;;12.15;2.50;;;;;;;;;;5123121;27;20065;-74
2024/02/22 10:53:12;;;;;;;6.30;1.45;;;;;;;;;;5121774;27;20051;-79
2024/02/22 10:55:55;;;;;;;5.40;1.25;;;;;;;;;;5120772;27;20125;-75
2024/02/22 10:58:27;;;;;;;3.03;1.30;;;;;;;;;;5121379;28;20050;-75
2024/02/22 11:01:00;;;;;;;2.78;0.90;;;;;;;;;;5122550;28;20051;-76
2024/02/22 11:03:31;;;;;;;10.00;1.10;;;;;;;;;;5122907;27;20411;-76
2024/02/22 11:06:04;;;;;;;5.22;0.88;;;;;;;;;;5121771;28;20143;-76
2024/02/22 11:08:36;;;;;;;4.50;2.80;;;;;;;;;;5121631;28;20114;-82
2024/02/22 11:11:07;;;;;;;2.97;0.90;;;;;;;;;;5121024;27;20493;-74
2024/02/22 11:13:38;;;;;;;4.47;0.70;;;;;;;;;;5122717;28;20411;-74
2024/02/22 11:16:18;;;;;;;7.80;3.00;;;;;;;;;;5121938;27;20058;-75
2024/02/22 11:18:51;;;;;;;1.90;0.80;;;;;;;;;;5121938;27;20043;-76
2024/02/22 11:21:29;;;;;;;7.93;0.90;;;;;;;;;;5121679;27;20047;-75
2024/02/22 11:24:11;;;;;;;5.78;3.65;;;;;;;;;;5121068;27;20062;-77
2024/02/22 11:26:42;;;;;;;4.13;1.40;;;;;;;;;;5121977;27;20062;-77
2024/02/22 11:29:13;;;;;;;3.30;0.80;;;;;;;;;;5121973;27;20046;-77
2024/02/22 11:31:44;;;;;;;9.20;1.10;;;;;;;;;;5125809;27;20039;-77
2024/02/22 11:34:16;;;;;;;5.80;0.95;;;;;;;;;;5124425;27;20059;-79
2024/02/22 11:36:47;;;;;;;3.53;1.17;;;;;;;;;;5126360;27;20058;-78
2024/02/22 11:39:22;;;;;;;13.90;1.20;;;;;;;;;;5124642;27;20218;-72
2024/02/22 11:41:52;;;;;;;3.00;1.00;;;;;;;;;;5125660;27;20061;-75
2024/02/22 11:44:22;;;;;;;5.43;1.25;;;;;;;;;;5125002;27;20054;-76
2024/02/22 11:46:52;;;;;;;2.38;0.80;;;;;;;;;;5124837;27;20051;-78
2024/02/22 11:49:24;;;;;;;2.88;0.80;;;;;;;;;;5124467;27;20054;-75
2024/02/22 11:51:56;;;;;;;3.63;1.00;;;;;;;;;;5125057;27;20055;-76
2024/02/22 11:54:26;;;;;;;3.72;0.60;;;;;;;;;;5125657;27;20578;-73
2024/02/22 11:56:58;;;;;;;2.17;0.80;;;;;;;;;;5124738;27;20055;-72
2024/02/22 11:59:31;;;;;;;5.63;0.80;;;;;;;;;;5125169;27;20059;-72
2024/02/22 12:02:04;;;;;;;3.55;0.70;;;;;;;;;;5124527;27;20059;-74
2024/02/22 12:04:35;;;;;;;2.33;1.05;;;;;;;;;;5124133;27;20051;-74
2024/02/22 12:07:05;;;;;;;1.17;0.60;;;;;;;;;;5124105;27;20047;-74
2024/02/22 12:09:36;;;;;;;12.15;1.00;;;;;;;;;;5125021;27;20514;-76
2024/02/22 12:12:07;;;;;;;3.65;0.88;;;;;;;;;;5124479;27;20502;-75
2024/02/22 12:14:39;;;;;;;2.53;0.70;;;;;;;;;;5125591;27;20047;-77
2024/02/22 12:17:12;;;;;;;3.38;0.80;;;;;;;;;;5124331;27;20059;-75
2024/02/22 12:19:43;;;;;;;2.03;0.75;;;;;;;;;;5124847;27;20425;-76
2024/02/22 12:22:16;;;;;;;4.25;1.38;;;;;;;;;;5124043;27;20514;-74
2024/02/22 12:28:12;;;;;;;4.53;0.82;;;;;;;;;;5124505;27;20058;-76
2024/02/22 12:30:43;;;;;;;3.38;0.73;;;;;;;;;;5123759;27;20059;-76
2024/02/22 12:33:24;;;;;;;1.83;0.70;;;;;;;;;;5123989;27;20051;-76
2024/02/22 12:35:57;;;;;;;5.95;0.73;;;;;;;;;;5123462;27;20086;-80
2024/02/22 12:38:27;;;;;;;1.20;0.77;;;;;;;;;;5123400;27;20055;-75
2024/02/22 12:40:58;;;;;;;3.92;1.10;;;;;;;;;;5125184;27;20058;-76
2024/02/22 12:43:29;;;;;;;5.80;1.00;;;;;;;;;;5124031;27;20035;-75
2024/02/22 12:46:00;;;;;;;9.63;0.93;;;;;;;;;;5124553;27;20097;-75
2024/02/22 12:48:31;;;;;;;5.22;1.30;;;;;;;;;;5123959;27;20066;-78
2024/02/22 12:51:02;;;;;;;7.05;1.50;;;;;;;;;;5124268;27;20501;-75
2024/02/22 12:54:24;;;;;;;2.20;0.93;;;;;;;;;;5123626;27;20050;-76
2024/02/22 12:56:54;;;;;;;3.60;0.95;;;;;;;;;;5124072;27;20413;-74
2024/02/22 12:59:27;;;;;;;2.22;0.98;;;;;;;;;;5123932;27;20051;-76
2024/02/22 13:01:58;;;;;;;4.63;1.00;;;;;;;;;;5123526;27;20047;-74
2024/02/22 13:04:29;;;;;;;4.85;0.70;;;;;;;;;;5123513;27;20051;-76
2024/02/22 13:06:59;;;;;;;6.28;1.38;;;;;;;;;;5123956;27;20505;-75
2024/02/22 13:09:45;;;;;;;1.40;0.90;;;;;;;;;;5079523;27;20487;-74
2024/02/22 13:12:17;;;;;;;2.75;1.65;;;;;;;;;;5079436;28;20064;-75
2024/02/22 13:14:48;;;;;;;2.25;1.17;;;;;;;;;;5079301;28;20052;-74
2024/02/22 13:17:21;;;;;;;3.17;1.38;;;;;;;;;;5079048;28;20510;-74
2024/02/22 13:19:52;;;;;;;1.50;1.08;;;;;;;;;;5080324;28;20462;-75
2024/02/22 13:22:37;;;;;;;8.65;1.40;;;;;;;;;;5079638;28;20487;-74
2024/02/22 13:28:25;;;;;;;7.45;1.30;;;;;;;;;;5082896;27;20068;-74
2024/02/22 13:30:59;;;;;;;4.05;1.25;;;;;;;;;;5080412;28;20063;-75
2024/02/22 13:33:30;;;;;;;2.05;1.20;;;;;;;;;;5080300;28;20044;-77
2024/02/22 13:36:01;;;;;;;6.50;1.40;;;;;;;;;;5080847;28;20044;-74
2024/02/22 13:38:32;;;;;;;3.10;1.27;;;;;;;;;;5080765;28;20055;-76
2024/02/22 13:41:03;;;;;;;3.83;1.38;;;;;;;;;;5079411;28;20055;-74
2024/02/22 13:43:33;;;;;;;1.75;1.20;;;;;;;;;;5079182;28;20052;-74
2024/02/22 13:46:04;;;;;;;1.65;1.10;;;;;;;;;;5078981;28;20676;-76
2024/02/22 13:48:35;;;;;;;15.38;2.00;;;;;;;;;;5078820;28;20083;-75
2024/02/22 13:51:07;;;;;;;9.85;1.20;;;;;;;;;;5058669;28;20056;-75
2024/02/22 13:53:38;;;;;;;1.52;1.27;;;;;;;;;;5058888;28;20075;-76
2024/02/22 13:56:09;;;;;;;1.48;1.30;;;;;;;;;;5058409;28;20063;-75
2024/02/22 13:58:39;;;;;;;1.48;1.25;;;;;;;;;;5058348;28;20053;-75
2024/02/22 14:01:10;;;;;;;7.15;1.40;;;;;;;;;;5060006;28;20061;-80
2024/02/22 14:03:41;;;;;;;2.25;1.20;;;;;;;;;;5058556;28;20056;-75
2024/02/22 14:06:13;;;;;;;17.30;3.05;;;;;;;;;;5058666;28;20059;-78
2024/02/22 14:12:40;;;;;;;9.10;1.58;;;;;;;;;;5055858;28;20052;-76
2024/02/22 14:15:11;;;;;;;3.13;1.50;;;;;;;;;;5058264;28;20511;-76
2024/02/22 14:17:43;;;;;;;2.25;1.40;;;;;;;;;;5058095;28;20057;-80
2024/02/22 14:20:14;;;;;;;2.80;1.38;;;;;;;;;;5050363;28;20053;-75
2024/02/22 14:22:46;;;;;;;5.13;1.30;;;;;;;;;;5045548;28;20060;-74
2024/02/22 14:25:17;;;;;;;3.03;1.50;;;;;;;;;;5044542;28;20064;-75
2024/02/22 14:27:48;;;;;;;2.35;1.50;;;;;;;;;;5045529;28;20515;-81
2024/02/22 14:30:18;;;;;;;3.88;1.67;;;;;;;;;;5044986;28;20053;-76
2024/02/22 14:32:48;;;;;;;1.85;1.52;;;;;;;;;;5044834;28;20112;-75
2024/02/22 14:35:19;;;;;;;5.50;1.83;;;;;;;;;;5044501;28;20063;-76
2024/02/22 14:37:52;;;;;;;2.38;1.42;;;;;;;;;;5044955;28;20037;-74
2024/02/22 14:40:23;;;;;;;11.43;1.80;;;;;;;;;;5044936;28;20052;-77
2024/02/22 14:43:14;;;;;;;2.92;1.50;;;;;;;;;;5044952;28;20060;-76
2024/02/22 14:45:50;;;;;;;4.10;2.00;;;;;;;;;;5044889;28;20697;-76
2024/02/22 14:48:21;;;;;;;;;;;;;;;;;;5046285;28;20504;-77
2024/02/22 14:50:52;;;;;;;5.05;1.75;;;;;;;;;;5046577;28;19925;-76
2024/02/22 14:53:22;;;;;;;4.47;1.40;;;;;;;;;;5044725;28;20053;-75
2024/02/22 14:55:56;;;;;;;3.30;1.33;;;;;;;;;;5044891;28;20548;-74
2024/02/22 14:58:29;;;;;;;2.90;1.58;;;;;;;;;;5044862;28;20047;-77
2024/02/22 15:01:01;;;;;;;2.72;1.13;;;;;;;;;;5044334;28;20056;-77
2024/02/22 15:03:32;;;;;;;4.55;1.30;;;;;;;;;;5043181;28;20052;-76
2024/02/22 15:06:02;;;;;;;2.78;1.20;;;;;;;;;;5044118;28;20053;-76
2024/02/22 15:08:40;;;;;;;2.20;1.40;;;;;;;;;;5042974;28;20068;-73
2024/02/22 15:11:12;;;;;;;2.88;1.40;;;;;;;;;;5045142;28;20053;-75
2024/02/22 15:13:42;;;;;;;1.88;1.40;;;;;;;;;;5044862;28;20053;-75
2024/02/22 15:16:12;;;;;;;3.33;1.35;;;;;;;;;;5044172;28;20116;-73
2024/02/22 15:18:42;;;;;;;2.03;1.50;;;;;;;;;;5044222;28;20416;-76
2024/02/22 15:21:14;;;;;;;1.30;1.20;;;;;;;;;;5043908;28;20056;-78
2024/02/22 15:23:46;;;;;;;4.38;1.80;;;;;;;;;;5044193;28;20059;-77